sensor_id;sensor_type;location;lat;lon;timestamp;pressure;altitude;pressure_sealevel;temperature;humidity
72118;BME280;59992;47.490;8.736;2023-04-19T00:01:21;96921.23;;;9.46;75.19
72118;BME280;59992;47.490;8.736;2023-04-19T00:04:12;96919.56;;;9.46;75.52
72118;BME280;59992;47.490;8.736;2023-04-19T00:07:03;96918.96;;;9.46;75.43
72118;BME280;59992;47.490;8.736;2023-04-19T00:09:54;96924.77;;;9.46;75.84
72118;BME280;59992;47.490;8.736;2023-04-19T00:12:44;96914.45;;;9.45;75.65
72118;BME280;59992;47.490;8.736;2023-04-19T00:15:35;96912.50;;;9.45;75.59
72118;BME280;59992;47.490;8.736;2023-04-19T00:18:25;96909.73;;;9.44;76.36
72118;BME280;59992;47.490;8.736;2023-04-19T00:21:15;96909.77;;;9.45;75.69
72118;BME280;59992;47.490;8.736;2023-04-19T00:24:06;96912.23;;;9.46;75.20
72118;BME280;59992;47.490;8.736;2023-04-19T00:26:56;96907.40;;;9.47;75.33
72118;BME280;59992;47.490;8.736;2023-04-19T00:29:47;96906.58;;;9.47;75.36
72118;BME280;59992;47.490;8.736;2023-04-19T00:32:37;96906.10;;;9.46;75.95
72118;BME280;59992;47.490;8.736;2023-04-19T00:35:27;96902.36;;;9.45;75.67
72118;BME280;59992;47.490;8.736;2023-04-19T00:38:18;96905.83;;;9.44;75.39
72118;BME280;59992;47.490;8.736;2023-04-19T00:41:08;96905.56;;;9.46;75.95
72118;BME280;59992;47.490;8.736;2023-04-19T00:43:59;96906.07;;;9.45;76.28
72118;BME280;59992;47.490;8.736;2023-04-19T00:46:49;96903.69;;;9.46;75.98
72118;BME280;59992;47.490;8.736;2023-04-19T00:49:40;96898.02;;;9.47;76.04
72118;BME280;59992;47.490;8.736;2023-04-19T00:52:30;96894.14;;;9.45;76.55
72118;BME280;59992;47.490;8.736;2023-04-19T00:55:22;96892.85;;;9.46;75.74
72118;BME280;59992;47.490;8.736;2023-04-19T00:58:12;96893.31;;;9.46;75.86
72118;BME280;59992;47.490;8.736;2023-04-19T01:01:02;96889.93;;;9.47;75.75
72118;BME280;59992;47.490;8.736;2023-04-19T01:03:54;96890.30;;;9.46;76.42
72118;BME280;59992;47.490;8.736;2023-04-19T01:06:44;96885.05;;;9.47;75.34
72118;BME280;59992;47.490;8.736;2023-04-19T01:09:36;96883.41;;;9.45;76.48
72118;BME280;59992;47.490;8.736;2023-04-19T01:12:28;96884.15;;;9.45;76.16
72118;BME280;59992;47.490;8.736;2023-04-19T01:15:18;96885.20;;;9.44;76.04
72118;BME280;59992;47.490;8.736;2023-04-19T01:18:12;96877.63;;;9.44;75.81
72118;BME280;59992;47.490;8.736;2023-04-19T01:21:02;96876.89;;;9.45;75.98
72118;BME280;59992;47.490;8.736;2023-04-19T01:23:53;96875.77;;;9.49;75.72
72118;BME280;59992;47.490;8.736;2023-04-19T01:26:43;96875.48;;;9.49;75.85
72118;BME280;59992;47.490;8.736;2023-04-19T01:29:34;96873.92;;;9.51;75.67
72118;BME280;59992;47.490;8.736;2023-04-19T01:32:24;96871.59;;;9.52;75.86
72118;BME280;59992;47.490;8.736;2023-04-19T01:35:14;96871.07;;;9.52;75.78
72118;BME280;59992;47.490;8.736;2023-04-19T01:38:04;96871.92;;;9.52;75.78
72118;BME280;59992;47.490;8.736;2023-04-19T01:40:54;96868.23;;;9.53;75.58
72118;BME280;59992;47.490;8.736;2023-04-19T01:43:45;96867.20;;;9.54;75.81
72118;BME280;59992;47.490;8.736;2023-04-19T01:46:35;96863.91;;;9.56;75.32
72118;BME280;59992;47.490;8.736;2023-04-19T01:49:26;96859.46;;;9.57;75.46
72118;BME280;59992;47.490;8.736;2023-04-19T01:52:16;96861.83;;;9.58;75.45
72118;BME280;59992;47.490;8.736;2023-04-19T01:55:07;96860.25;;;9.59;75.61
72118;BME280;59992;47.490;8.736;2023-04-19T01:57:58;96860.08;;;9.57;75.33
72118;BME280;59992;47.490;8.736;2023-04-19T02:00:48;96858.18;;;9.57;75.05
72118;BME280;59992;47.490;8.736;2023-04-19T02:03:38;96852.79;;;9.56;75.06
72118;BME280;59992;47.490;8.736;2023-04-19T02:06:29;96857.41;;;9.56;75.26
72118;BME280;59992;47.490;8.736;2023-04-19T02:09:19;96857.03;;;9.56;75.30
72118;BME280;59992;47.490;8.736;2023-04-19T02:12:10;96853.66;;;9.54;74.79
72118;BME280;59992;47.490;8.736;2023-04-19T02:15:00;96856.94;;;9.55;75.05
72118;BME280;59992;47.490;8.736;2023-04-19T02:17:51;96851.62;;;9.55;75.34
72118;BME280;59992;47.490;8.736;2023-04-19T02:20:42;96844.66;;;9.54;75.91
72118;BME280;59992;47.490;8.736;2023-04-19T02:23:32;96842.53;;;9.50;75.32
72118;BME280;59992;47.490;8.736;2023-04-19T02:26:23;96845.92;;;9.53;75.10
72118;BME280;59992;47.490;8.736;2023-04-19T02:29:13;96845.91;;;9.52;75.43
72118;BME280;59992;47.490;8.736;2023-04-19T02:32:05;96847.65;;;9.52;75.34
72118;BME280;59992;47.490;8.736;2023-04-19T02:34:55;96847.41;;;9.51;74.96
72118;BME280;59992;47.490;8.736;2023-04-19T02:37:45;96845.88;;;9.51;75.19
72118;BME280;59992;47.490;8.736;2023-04-19T02:40:35;96844.21;;;9.51;74.91
72118;BME280;59992;47.490;8.736;2023-04-19T02:43:26;96845.48;;;9.51;75.17
72118;BME280;59992;47.490;8.736;2023-04-19T02:46:16;96847.75;;;9.50;75.43
72118;BME280;59992;47.490;8.736;2023-04-19T02:49:06;96844.13;;;9.50;75.48
72118;BME280;59992;47.490;8.736;2023-04-19T02:51:57;96844.49;;;9.50;75.70
72118;BME280;59992;47.490;8.736;2023-04-19T02:54:47;96838.48;;;9.49;75.48
72118;BME280;59992;47.490;8.736;2023-04-19T02:57:37;96837.45;;;9.46;75.78
72118;BME280;59992;47.490;8.736;2023-04-19T03:00:27;96840.24;;;9.49;75.80
72118;BME280;59992;47.490;8.736;2023-04-19T03:03:17;96840.15;;;9.49;76.01
72118;BME280;59992;47.490;8.736;2023-04-19T03:06:08;96839.54;;;9.48;75.73
72118;BME280;59992;47.490;8.736;2023-04-19T03:08:58;96841.04;;;9.48;75.47
72118;BME280;59992;47.490;8.736;2023-04-19T03:11:48;96837.12;;;9.48;75.76
72118;BME280;59992;47.490;8.736;2023-04-19T03:14:39;96836.29;;;9.49;75.77
72118;BME280;59992;47.490;8.736;2023-04-19T03:17:29;96835.29;;;9.48;75.99
72118;BME280;59992;47.490;8.736;2023-04-19T03:20:19;96831.92;;;9.46;77.64
72118;BME280;59992;47.490;8.736;2023-04-19T03:23:09;96834.96;;;9.47;76.67
72118;BME280;59992;47.490;8.736;2023-04-19T03:26:00;96831.36;;;9.47;76.29
72118;BME280;59992;47.490;8.736;2023-04-19T03:28:50;96829.91;;;9.47;76.17
72118;BME280;59992;47.490;8.736;2023-04-19T03:31:40;96829.40;;;9.48;75.70
72118;BME280;59992;47.490;8.736;2023-04-19T03:34:30;96826.91;;;9.48;76.37
72118;BME280;59992;47.490;8.736;2023-04-19T03:37:21;96825.10;;;9.48;76.22
72118;BME280;59992;47.490;8.736;2023-04-19T03:40:15;96820.39;;;9.47;76.54
72118;BME280;59992;47.490;8.736;2023-04-19T03:43:05;96818.18;;;9.47;75.93
72118;BME280;59992;47.490;8.736;2023-04-19T03:45:55;96818.09;;;9.46;75.90
72118;BME280;59992;47.490;8.736;2023-04-19T03:48:45;96816.35;;;9.45;75.92
72118;BME280;59992;47.490;8.736;2023-04-19T03:51:36;96814.17;;;9.46;75.86
72118;BME280;59992;47.490;8.736;2023-04-19T03:54:28;96815.01;;;9.47;75.73
72118;BME280;59992;47.490;8.736;2023-04-19T03:57:18;96816.92;;;9.48;75.93
72118;BME280;59992;47.490;8.736;2023-04-19T04:00:10;96815.45;;;9.49;76.01
72118;BME280;59992;47.490;8.736;2023-04-19T04:03:00;96813.83;;;9.51;76.02
72118;BME280;59992;47.490;8.736;2023-04-19T04:05:50;96812.39;;;9.51;76.89
72118;BME280;59992;47.490;8.736;2023-04-19T04:08:40;96807.28;;;9.50;77.29
72118;BME280;59992;47.490;8.736;2023-04-19T04:11:30;96803.05;;;9.46;76.63
72118;BME280;59992;47.490;8.736;2023-04-19T04:14:20;96818.73;;;9.50;78.12
72118;BME280;59992;47.490;8.736;2023-04-19T04:17:11;96819.59;;;9.52;77.84
72118;BME280;59992;47.490;8.736;2023-04-19T04:20:01;96817.20;;;9.54;77.00
72118;BME280;59992;47.490;8.736;2023-04-19T04:22:51;96821.27;;;9.53;77.31
72118;BME280;59992;47.490;8.736;2023-04-19T04:25:42;96818.58;;;9.54;77.19
72118;BME280;59992;47.490;8.736;2023-04-19T04:28:32;96820.61;;;9.54;76.97
72118;BME280;59992;47.490;8.736;2023-04-19T04:31:22;96818.02;;;9.56;76.74
72118;BME280;59992;47.490;8.736;2023-04-19T04:34:12;96817.64;;;9.57;76.60
72118;BME280;59992;47.490;8.736;2023-04-19T04:37:02;96814.77;;;9.57;77.55
72118;BME280;59992;47.490;8.736;2023-04-19T04:39:52;96816.84;;;9.58;78.23
72118;BME280;59992;47.490;8.736;2023-04-19T04:42:43;96823.32;;;9.61;77.06
72118;BME280;59992;47.490;8.736;2023-04-19T04:45:34;96812.11;;;9.56;77.07
72118;BME280;59992;47.490;8.736;2023-04-19T04:48:25;96823.80;;;9.62;76.34
72118;BME280;59992;47.490;8.736;2023-04-19T04:51:15;96825.41;;;9.63;76.65
72118;BME280;59992;47.490;8.736;2023-04-19T04:54:05;96825.19;;;9.63;76.63
72118;BME280;59992;47.490;8.736;2023-04-19T04:56:55;96825.03;;;9.63;77.58
72118;BME280;59992;47.490;8.736;2023-04-19T04:59:46;96823.96;;;9.62;77.73
72118;BME280;59992;47.490;8.736;2023-04-19T05:02:36;96824.96;;;9.63;77.86
72118;BME280;59992;47.490;8.736;2023-04-19T05:05:26;96827.84;;;9.63;79.65
72118;BME280;59992;47.490;8.736;2023-04-19T05:08:16;96829.63;;;9.62;78.21
72118;BME280;59992;47.490;8.736;2023-04-19T05:11:07;96818.49;;;9.58;77.88
72118;BME280;59992;47.490;8.736;2023-04-19T05:13:57;96827.16;;;9.64;78.01
72118;BME280;59992;47.490;8.736;2023-04-19T05:16:47;96826.34;;;9.63;79.25
72118;BME280;59992;47.490;8.736;2023-04-19T05:19:39;96826.80;;;9.64;78.93
72118;BME280;59992;47.490;8.736;2023-04-19T05:22:29;96826.10;;;9.67;77.78
72118;BME280;59992;47.490;8.736;2023-04-19T05:25:19;96826.69;;;9.70;77.22
72118;BME280;59992;47.490;8.736;2023-04-19T05:28:10;96832.05;;;9.73;77.29
72118;BME280;59992;47.490;8.736;2023-04-19T05:31:00;96828.39;;;9.75;77.58
72118;BME280;59992;47.490;8.736;2023-04-19T05:33:50;96828.23;;;9.75;78.08
72118;BME280;59992;47.490;8.736;2023-04-19T05:36:40;96832.77;;;9.79;77.79
72118;BME280;59992;47.490;8.736;2023-04-19T05:39:30;96833.59;;;9.82;78.04
72118;BME280;59992;47.490;8.736;2023-04-19T05:42:20;96833.03;;;9.84;77.71
72118;BME280;59992;47.490;8.736;2023-04-19T05:45:11;96831.96;;;9.87;76.63
72118;BME280;59992;47.490;8.736;2023-04-19T05:48:10;96831.17;;;9.89;76.29
72118;BME280;59992;47.490;8.736;2023-04-19T05:51:00;96833.39;;;9.90;76.25
72118;BME280;59992;47.490;8.736;2023-04-19T05:53:50;96834.92;;;9.92;76.22
72118;BME280;59992;47.490;8.736;2023-04-19T05:56:41;96834.10;;;9.92;75.90
72118;BME280;59992;47.490;8.736;2023-04-19T05:59:31;96832.92;;;9.90;75.86
72118;BME280;59992;47.490;8.736;2023-04-19T06:02:24;96837.73;;;9.93;75.57
72118;BME280;59992;47.490;8.736;2023-04-19T06:05:14;96835.15;;;9.88;75.06
72118;BME280;59992;47.490;8.736;2023-04-19T06:08:07;96840.63;;;9.93;75.41
72118;BME280;59992;47.490;8.736;2023-04-19T06:10:59;96838.54;;;9.95;74.83
72118;BME280;59992;47.490;8.736;2023-04-19T06:13:50;96844.64;;;9.97;74.40
72118;BME280;59992;47.490;8.736;2023-04-19T06:16:40;96842.02;;;9.98;74.56
72118;BME280;59992;47.490;8.736;2023-04-19T06:19:34;96843.02;;;9.96;74.45
72118;BME280;59992;47.490;8.736;2023-04-19T06:22:24;96843.55;;;9.96;75.03
72118;BME280;59992;47.490;8.736;2023-04-19T06:25:14;96845.66;;;9.99;74.78
72118;BME280;59992;47.490;8.736;2023-04-19T06:28:05;96844.77;;;10.03;74.61
72118;BME280;59992;47.490;8.736;2023-04-19T06:30:55;96843.96;;;10.09;74.53
72118;BME280;59992;47.490;8.736;2023-04-19T06:33:45;96845.83;;;10.14;74.45
72118;BME280;59992;47.490;8.736;2023-04-19T06:36:35;96843.34;;;10.19;74.30
72118;BME280;59992;47.490;8.736;2023-04-19T06:39:25;96845.91;;;10.23;74.47
72118;BME280;59992;47.490;8.736;2023-04-19T06:42:16;96843.70;;;10.26;73.88
72118;BME280;59992;47.490;8.736;2023-04-19T06:45:10;96848.18;;;10.30;74.11
72118;BME280;59992;47.490;8.736;2023-04-19T06:48:00;96850.73;;;10.34;73.95
72118;BME280;59992;47.490;8.736;2023-04-19T06:50:51;96851.36;;;10.38;73.60
72118;BME280;59992;47.490;8.736;2023-04-19T06:53:42;96855.20;;;10.41;73.52
72118;BME280;59992;47.490;8.736;2023-04-19T06:56:43;96855.54;;;10.43;72.98
72118;BME280;59992;47.490;8.736;2023-04-19T06:59:35;96857.76;;;10.45;72.78
72118;BME280;59992;47.490;8.736;2023-04-19T07:02:28;96860.17;;;10.49;72.77
72118;BME280;59992;47.490;8.736;2023-04-19T07:05:18;96857.08;;;10.49;72.36
72118;BME280;59992;47.490;8.736;2023-04-19T07:08:09;96858.17;;;10.51;72.44
72118;BME280;59992;47.490;8.736;2023-04-19T07:10:59;96857.61;;;10.53;72.17
72118;BME280;59992;47.490;8.736;2023-04-19T07:13:50;96861.06;;;10.56;72.17
72118;BME280;59992;47.490;8.736;2023-04-19T07:16:42;96863.11;;;10.56;71.88
72118;BME280;59992;47.490;8.736;2023-04-19T07:19:32;96858.25;;;10.55;71.55
72118;BME280;59992;47.490;8.736;2023-04-19T07:22:24;96859.06;;;10.54;71.53
72118;BME280;59992;47.490;8.736;2023-04-19T07:25:14;96859.20;;;10.57;71.57
72118;BME280;59992;47.490;8.736;2023-04-19T07:28:04;96861.08;;;10.61;71.78
72118;BME280;59992;47.490;8.736;2023-04-19T07:30:55;96857.88;;;10.64;71.51
72118;BME280;59992;47.490;8.736;2023-04-19T07:33:45;96859.37;;;10.67;71.46
72118;BME280;59992;47.490;8.736;2023-04-19T07:36:35;96860.86;;;10.69;71.46
72118;BME280;59992;47.490;8.736;2023-04-19T07:39:26;96861.98;;;10.70;71.12
72118;BME280;59992;47.490;8.736;2023-04-19T07:42:19;96858.95;;;10.70;71.30
72118;BME280;59992;47.490;8.736;2023-04-19T07:45:10;96854.35;;;10.70;71.09
72118;BME280;59992;47.490;8.736;2023-04-19T07:48:02;96857.40;;;10.67;71.02
72118;BME280;59992;47.490;8.736;2023-04-19T07:50:52;96857.84;;;10.66;70.99
72118;BME280;59992;47.490;8.736;2023-04-19T07:53:43;96855.46;;;10.69;71.30
72118;BME280;59992;47.490;8.736;2023-04-19T07:56:33;96853.09;;;10.72;70.81
72118;BME280;59992;47.490;8.736;2023-04-19T07:59:24;96855.75;;;10.73;71.14
72118;BME280;59992;47.490;8.736;2023-04-19T08:02:14;96855.95;;;10.75;70.92
72118;BME280;59992;47.490;8.736;2023-04-19T08:05:07;96852.48;;;10.77;70.62
72118;BME280;59992;47.490;8.736;2023-04-19T08:07:58;96852.59;;;10.78;70.46
72118;BME280;59992;47.490;8.736;2023-04-19T08:10:48;96852.43;;;10.82;70.37
72118;BME280;59992;47.490;8.736;2023-04-19T08:13:38;96850.56;;;10.88;70.12
72118;BME280;59992;47.490;8.736;2023-04-19T08:16:29;96849.48;;;10.92;70.14
72118;BME280;59992;47.490;8.736;2023-04-19T08:19:19;96846.91;;;10.98;70.35
72118;BME280;59992;47.490;8.736;2023-04-19T08:22:09;96846.22;;;11.01;70.03
72118;BME280;59992;47.490;8.736;2023-04-19T08:25:00;96847.67;;;11.07;69.58
72118;BME280;59992;47.490;8.736;2023-04-19T08:27:50;96847.72;;;11.10;69.50
72118;BME280;59992;47.490;8.736;2023-04-19T08:30:41;96840.63;;;11.08;68.80
72118;BME280;59992;47.490;8.736;2023-04-19T08:33:31;96847.27;;;11.14;68.94
72118;BME280;59992;47.490;8.736;2023-04-19T08:36:24;96843.38;;;11.18;69.23
72118;BME280;59992;47.490;8.736;2023-04-19T08:39:14;96841.91;;;11.22;69.10
72118;BME280;59992;47.490;8.736;2023-04-19T08:42:06;96844.45;;;11.25;68.57
72118;BME280;59992;47.490;8.736;2023-04-19T08:44:57;96844.41;;;11.27;67.94
72118;BME280;59992;47.490;8.736;2023-04-19T08:47:51;96845.09;;;11.27;68.47
72118;BME280;59992;47.490;8.736;2023-04-19T08:50:43;96846.36;;;11.25;67.84
72118;BME280;59992;47.490;8.736;2023-04-19T08:53:35;96844.63;;;11.26;67.82
72118;BME280;59992;47.490;8.736;2023-04-19T08:56:26;96839.88;;;11.28;68.32
72118;BME280;59992;47.490;8.736;2023-04-19T08:59:17;96838.83;;;11.33;68.29
72118;BME280;59992;47.490;8.736;2023-04-19T09:02:08;96839.05;;;11.39;67.86
72118;BME280;59992;47.490;8.736;2023-04-19T09:04:58;96836.89;;;11.47;67.79
72118;BME280;59992;47.490;8.736;2023-04-19T09:07:48;96836.98;;;11.54;68.09
72118;BME280;59992;47.490;8.736;2023-04-19T09:10:46;96834.18;;;11.59;67.42
72118;BME280;59992;47.490;8.736;2023-04-19T09:13:41;96824.14;;;11.58;67.66
72118;BME280;59992;47.490;8.736;2023-04-19T09:16:32;96831.05;;;11.67;67.54
72118;BME280;59992;47.490;8.736;2023-04-19T09:19:24;96828.98;;;11.71;67.56
72118;BME280;59992;47.490;8.736;2023-04-19T09:22:14;96828.04;;;11.76;67.31
72118;BME280;59992;47.490;8.736;2023-04-19T09:25:09;96824.22;;;11.80;66.84
72118;BME280;59992;47.490;8.736;2023-04-19T09:28:10;96817.09;;;11.79;66.55
72118;BME280;59992;47.490;8.736;2023-04-19T09:31:11;96820.16;;;11.83;66.85
72118;BME280;59992;47.490;8.736;2023-04-19T09:34:15;96821.76;;;11.83;66.68
72118;BME280;59992;47.490;8.736;2023-04-19T09:37:14;96818.81;;;11.85;66.49
72118;BME280;59992;47.490;8.736;2023-04-19T09:40:22;96814.08;;;11.88;65.85
72118;BME280;59992;47.490;8.736;2023-04-19T09:43:13;96811.02;;;11.86;65.42
72118;BME280;59992;47.490;8.736;2023-04-19T09:46:30;96811.30;;;11.85;65.40
72118;BME280;59992;47.490;8.736;2023-04-19T09:49:22;96806.69;;;11.92;66.35
72118;BME280;59992;47.490;8.736;2023-04-19T09:52:14;96807.08;;;12.06;66.12
72118;BME280;59992;47.490;8.736;2023-04-19T09:55:06;96803.54;;;12.17;65.61
72118;BME280;59992;47.490;8.736;2023-04-19T09:57:56;96801.61;;;12.28;65.55
72118;BME280;59992;47.490;8.736;2023-04-19T10:00:47;96794.92;;;12.35;64.70
72118;BME280;59992;47.490;8.736;2023-04-19T10:03:40;96793.17;;;12.43;65.06
72118;BME280;59992;47.490;8.736;2023-04-19T10:06:32;96794.89;;;12.47;64.26
72118;BME280;59992;47.490;8.736;2023-04-19T10:09:24;96789.06;;;12.51;63.75
72118;BME280;59992;47.490;8.736;2023-04-19T10:12:15;96788.79;;;12.53;64.01
72118;BME280;59992;47.490;8.736;2023-04-19T10:15:07;96794.40;;;12.51;64.02
72118;BME280;59992;47.490;8.736;2023-04-19T10:17:58;96786.93;;;12.49;63.53
72118;BME280;59992;47.490;8.736;2023-04-19T10:20:53;96788.45;;;12.49;63.91
72118;BME280;59992;47.490;8.736;2023-04-19T10:23:45;96785.23;;;12.46;63.64
72118;BME280;59992;47.490;8.736;2023-04-19T10:29:58;96784.23;;;12.54;62.93
72118;BME280;59992;47.490;8.736;2023-04-19T10:32:53;96782.39;;;12.60;63.36
72118;BME280;59992;47.490;8.736;2023-04-19T10:35:45;96772.39;;;12.64;63.40
72118;BME280;59992;47.490;8.736;2023-04-19T10:38:39;96776.91;;;12.78;63.33
72118;BME280;59992;47.490;8.736;2023-04-19T10:41:58;96775.54;;;12.88;63.45
72118;BME280;59992;47.490;8.736;2023-04-19T10:48:40;96763.27;;;13.04;63.06
72118;BME280;59992;47.490;8.736;2023-04-19T10:51:36;96757.47;;;13.08;61.41
72118;BME280;59992;47.490;8.736;2023-04-19T10:54:31;96756.05;;;13.12;60.94
72118;BME280;59992;47.490;8.736;2023-04-19T10:57:25;96751.48;;;13.11;60.88
72118;BME280;59992;47.490;8.736;2023-04-19T11:00:23;96749.93;;;13.21;60.99
72118;BME280;59992;47.490;8.736;2023-04-19T11:03:51;96744.23;;;13.36;60.76
72118;BME280;59992;47.490;8.736;2023-04-19T11:06:58;96742.11;;;13.52;60.88
72118;BME280;59992;47.490;8.736;2023-04-19T11:09:49;96736.97;;;13.62;60.31
72118;BME280;59992;47.490;8.736;2023-04-19T11:12:43;96736.41;;;13.75;60.63
72118;BME280;59992;47.490;8.736;2023-04-19T11:15:34;96731.44;;;13.93;60.46
72118;BME280;59992;47.490;8.736;2023-04-19T11:18:29;96728.18;;;14.04;59.16
72118;BME280;59992;47.490;8.736;2023-04-19T11:21:20;96723.72;;;14.20;59.63
72118;BME280;59992;47.490;8.736;2023-04-19T11:24:10;96724.08;;;14.33;58.24
72118;BME280;59992;47.490;8.736;2023-04-19T11:27:08;96721.86;;;14.50;59.55
72118;BME280;59992;47.490;8.736;2023-04-19T11:30:04;96718.28;;;14.53;57.52
72118;BME280;59992;47.490;8.736;2023-04-19T11:32:55;96714.94;;;14.52;56.49
72118;BME280;59992;47.490;8.736;2023-04-19T11:35:45;96710.59;;;14.56;57.50
72118;BME280;59992;47.490;8.736;2023-04-19T11:38:36;96709.73;;;14.54;57.38
72118;BME280;59992;47.490;8.736;2023-04-19T11:41:26;96705.25;;;14.57;56.85
72118;BME280;59992;47.490;8.736;2023-04-19T11:44:17;96700.61;;;14.53;57.07
72118;BME280;59992;47.490;8.736;2023-04-19T11:47:08;96701.52;;;14.57;56.24
72118;BME280;59992;47.490;8.736;2023-04-19T11:50:31;96695.27;;;14.42;55.21
72118;BME280;59992;47.490;8.736;2023-04-19T11:53:23;96693.05;;;14.27;56.55
72118;BME280;59992;47.490;8.736;2023-04-19T11:56:14;96690.20;;;14.17;56.48
72118;BME280;59992;47.490;8.736;2023-04-19T11:59:04;96691.19;;;14.03;56.94
72118;BME280;59992;47.490;8.736;2023-04-19T12:02:05;96688.11;;;13.93;57.75
72118;BME280;59992;47.490;8.736;2023-04-19T12:04:55;96689.16;;;13.85;57.98
72118;BME280;59992;47.490;8.736;2023-04-19T12:08:02;96684.35;;;13.77;58.32
72118;BME280;59992;47.490;8.736;2023-04-19T12:10:57;96686.23;;;13.71;59.04
72118;BME280;59992;47.490;8.736;2023-04-19T12:13:48;96683.70;;;13.60;59.78
72118;BME280;59992;47.490;8.736;2023-04-19T12:17:08;96685.66;;;13.57;59.66
72118;BME280;59992;47.490;8.736;2023-04-19T12:19:58;96684.42;;;13.52;59.62
72118;BME280;59992;47.490;8.736;2023-04-19T12:22:48;96683.48;;;13.43;59.72
72118;BME280;59992;47.490;8.736;2023-04-19T12:25:39;96685.27;;;13.37;59.83
72118;BME280;59992;47.490;8.736;2023-04-19T12:28:30;96684.52;;;13.22;60.67
72118;BME280;59992;47.490;8.736;2023-04-19T12:31:20;96680.37;;;13.25;60.58
72118;BME280;59992;47.490;8.736;2023-04-19T12:34:10;96678.23;;;13.25;60.23
72118;BME280;59992;47.490;8.736;2023-04-19T12:37:01;96667.02;;;13.19;59.84
72118;BME280;59992;47.490;8.736;2023-04-19T12:39:52;96675.33;;;13.24;60.03
72118;BME280;59992;47.490;8.736;2023-04-19T12:42:42;96671.64;;;13.29;59.72
72118;BME280;59992;47.490;8.736;2023-04-19T12:45:33;96670.14;;;13.37;60.04
72118;BME280;59992;47.490;8.736;2023-04-19T12:48:23;96667.30;;;13.49;59.85
72118;BME280;59992;47.490;8.736;2023-04-19T12:51:14;96669.83;;;13.59;59.76
72118;BME280;59992;47.490;8.736;2023-04-19T12:54:04;96662.62;;;13.69;59.60
72118;BME280;59992;47.490;8.736;2023-04-19T12:56:56;96659.45;;;13.76;59.62
72118;BME280;59992;47.490;8.736;2023-04-19T12:59:46;96656.20;;;13.86;58.94
72118;BME280;59992;47.490;8.736;2023-04-19T13:02:36;96653.93;;;13.95;58.75
72118;BME280;59992;47.490;8.736;2023-04-19T13:05:27;96654.63;;;14.01;57.76
72118;BME280;59992;47.490;8.736;2023-04-19T13:08:17;96650.27;;;14.07;58.51
72118;BME280;59992;47.490;8.736;2023-04-19T13:11:09;96641.61;;;14.11;57.42
72118;BME280;59992;47.490;8.736;2023-04-19T13:13:59;96641.37;;;14.21;58.38
72118;BME280;59992;47.490;8.736;2023-04-19T13:16:49;96636.14;;;14.29;58.35
72118;BME280;59992;47.490;8.736;2023-04-19T13:19:40;96630.27;;;14.32;56.17
72118;BME280;59992;47.490;8.736;2023-04-19T13:22:30;96628.45;;;14.36;56.01
72118;BME280;59992;47.490;8.736;2023-04-19T13:25:20;96627.45;;;14.41;56.68
72118;BME280;59992;47.490;8.736;2023-04-19T13:28:10;96620.05;;;14.41;55.09
72118;BME280;59992;47.490;8.736;2023-04-19T13:31:00;96613.13;;;14.41;55.48
72118;BME280;59992;47.490;8.736;2023-04-19T13:33:51;96607.11;;;14.40;55.43
72118;BME280;59992;47.490;8.736;2023-04-19T13:36:42;96602.98;;;14.42;55.95
72118;BME280;59992;47.490;8.736;2023-04-19T13:39:32;96603.36;;;14.50;55.88
72118;BME280;59992;47.490;8.736;2023-04-19T13:42:22;96604.48;;;14.58;55.82
72118;BME280;59992;47.490;8.736;2023-04-19T13:45:14;96599.45;;;14.59;54.97
72118;BME280;59992;47.490;8.736;2023-04-19T13:48:04;96594.59;;;14.55;54.90
72118;BME280;59992;47.490;8.736;2023-04-19T13:50:55;96590.23;;;14.55;54.83
72118;BME280;59992;47.490;8.736;2023-04-19T13:53:45;96583.45;;;14.58;55.26
72118;BME280;59992;47.490;8.736;2023-04-19T13:56:36;96576.71;;;14.65;55.63
72118;BME280;59992;47.490;8.736;2023-04-19T13:59:26;96572.20;;;14.72;55.24
72118;BME280;59992;47.490;8.736;2023-04-19T14:02:19;96568.84;;;14.75;54.05
72118;BME280;59992;47.490;8.736;2023-04-19T14:05:10;96567.89;;;14.82;54.48
72118;BME280;59992;47.490;8.736;2023-04-19T14:08:00;96561.41;;;14.88;54.65
72118;BME280;59992;47.490;8.736;2023-04-19T14:10:50;96559.03;;;14.88;53.74
72118;BME280;59992;47.490;8.736;2023-04-19T14:13:40;96556.18;;;14.94;54.67
72118;BME280;59992;47.490;8.736;2023-04-19T14:16:32;96551.48;;;15.04;53.95
72118;BME280;59992;47.490;8.736;2023-04-19T14:19:22;96549.80;;;15.07;53.56
72118;BME280;59992;47.490;8.736;2023-04-19T14:22:12;96550.31;;;15.08;52.87
72118;BME280;59992;47.490;8.736;2023-04-19T14:25:03;96547.87;;;15.12;52.33
72118;BME280;59992;47.490;8.736;2023-04-19T14:27:53;96546.69;;;15.19;53.30
72118;BME280;59992;47.490;8.736;2023-04-19T14:30:43;96537.89;;;15.22;52.30
72118;BME280;59992;47.490;8.736;2023-04-19T14:33:34;96537.35;;;15.23;51.38
72118;BME280;59992;47.490;8.736;2023-04-19T14:36:24;96533.08;;;15.24;51.95
72118;BME280;59992;47.490;8.736;2023-04-19T14:39:15;96529.19;;;15.35;52.04
72118;BME280;59992;47.490;8.736;2023-04-19T14:42:05;96531.16;;;15.43;52.16
72118;BME280;59992;47.490;8.736;2023-04-19T14:44:57;96529.63;;;15.42;51.58
72118;BME280;59992;47.490;8.736;2023-04-19T14:47:48;96526.95;;;15.39;51.75
72118;BME280;59992;47.490;8.736;2023-04-19T14:50:39;96514.55;;;15.33;51.56
72118;BME280;59992;47.490;8.736;2023-04-19T14:53:29;96519.21;;;15.31;50.87
72118;BME280;59992;47.490;8.736;2023-04-19T14:56:19;96519.54;;;15.28;50.46
72118;BME280;59992;47.490;8.736;2023-04-19T14:59:09;96505.81;;;15.14;50.71
72118;BME280;59992;47.490;8.736;2023-04-19T15:02:00;96513.00;;;15.12;50.29
72118;BME280;59992;47.490;8.736;2023-04-19T15:04:50;96512.23;;;14.99;50.71
72118;BME280;59992;47.490;8.736;2023-04-19T15:07:40;96509.48;;;14.99;51.19
72118;BME280;59992;47.490;8.736;2023-04-19T15:10:32;96502.42;;;14.92;50.82
72118;BME280;59992;47.490;8.736;2023-04-19T15:13:25;96502.65;;;14.93;51.94
72118;BME280;59992;47.490;8.736;2023-04-19T15:16:17;96503.02;;;14.97;51.98
72118;BME280;59992;47.490;8.736;2023-04-19T15:19:08;96502.64;;;14.98;51.59
72118;BME280;59992;47.490;8.736;2023-04-19T15:21:59;96500.80;;;14.96;51.77